createdAt,value
2023-02-15T00:01:51.505Z,14.35
2023-02-15T00:04:22.009Z,20.20
2023-02-15T00:06:50.142Z,16.10
2023-02-15T00:09:19.350Z,14.15
2023-02-15T00:11:51.118Z,17.30
2023-02-15T00:14:21.300Z,17.60
2023-02-15T00:16:50.322Z,15.40
2023-02-15T00:19:20.177Z,17.80
2023-02-15T00:21:49.653Z,17.88
2023-02-15T00:24:20.744Z,19.85
2023-02-15T00:26:50.123Z,14.77
2023-02-15T00:29:20.032Z,14.80
2023-02-15T00:31:49.314Z,14.77
2023-02-15T00:34:19.793Z,18.05
2023-02-15T00:36:48.427Z,13.50
2023-02-15T00:39:17.817Z,18.17
2023-02-15T00:41:47.210Z,17.15
2023-02-15T00:44:17.145Z,20.30
2023-02-15T00:46:45.189Z,16.00
2023-02-15T00:49:13.341Z,13.35
2023-02-15T00:51:41.533Z,17.60
2023-02-15T00:54:09.977Z,14.70
2023-02-15T00:56:38.060Z,15.52
2023-02-15T00:59:07.306Z,14.65
2023-02-15T01:01:35.132Z,19.27
2023-02-15T01:04:03.887Z,15.25
2023-02-15T01:06:31.666Z,14.25
2023-02-15T01:08:59.471Z,16.08
2023-02-15T01:11:27.606Z,17.02
2023-02-15T01:13:56.723Z,12.70
2023-02-15T01:16:28.447Z,18.10
2023-02-15T01:18:56.959Z,15.15
2023-02-15T01:21:26.806Z,19.50
2023-02-15T01:23:55.621Z,15.05
2023-02-15T01:26:23.639Z,10.68
2023-02-15T01:28:51.473Z,16.95
2023-02-15T01:31:22.459Z,13.43
2023-02-15T01:33:51.682Z,13.50
2023-02-15T01:36:19.759Z,15.63
2023-02-15T01:38:47.755Z,16.35
2023-02-15T01:41:23.785Z,14.35
2023-02-15T01:43:54.361Z,12.40
2023-02-15T01:46:27.232Z,13.82
2023-02-15T01:49:02.153Z,15.20
2023-02-15T01:51:33.185Z,17.13
2023-02-15T01:54:07.896Z,15.27
2023-02-15T01:56:38.271Z,14.32
2023-02-15T01:59:10.213Z,15.85
2023-02-15T02:01:39.614Z,12.60
2023-02-15T02:04:15.500Z,13.52
2023-02-15T02:06:43.564Z,12.05
2023-02-15T02:09:11.606Z,17.70
2023-02-15T02:11:41.434Z,12.57
2023-02-15T02:14:10.048Z,21.13
2023-02-15T02:16:45.083Z,14.25
2023-02-15T02:19:39.648Z,12.80
2023-02-15T02:22:35.123Z,15.85
2023-02-15T02:25:37.275Z,14.48
2023-02-15T02:28:27.601Z,12.00
2023-02-15T02:31:47.062Z,17.52
2023-02-15T02:34:22.032Z,14.63
2023-02-15T02:36:55.261Z,15.57
2023-02-15T02:39:31.607Z,13.85
2023-02-15T02:42:08.137Z,13.98
2023-02-15T02:44:45.060Z,16.23
2023-02-15T02:47:19.947Z,12.60
2023-02-15T02:49:49.230Z,13.23
2023-02-15T02:52:37.534Z,14.98
2023-02-15T02:55:07.919Z,15.20
2023-02-15T02:57:38.357Z,16.20
2023-02-15T03:00:09.673Z,14.70
2023-02-15T03:02:40.336Z,13.32
2023-02-15T03:05:14.894Z,13.38
2023-02-15T03:07:44.794Z,16.52
2023-02-15T03:10:12.930Z,12.02
2023-02-15T03:12:42.779Z,15.68
2023-02-15T03:15:15.223Z,12.88
2023-02-15T03:17:46.609Z,14.48
2023-02-15T03:20:20.881Z,12.13
2023-02-15T03:22:53.097Z,13.05
2023-02-15T03:25:24.912Z,17.30
2023-02-15T03:27:57.837Z,19.17
2023-02-15T03:30:27.646Z,18.90
2023-02-15T03:32:56.435Z,11.00
2023-02-15T03:35:32.736Z,15.32
2023-02-15T03:38:02.962Z,13.88
2023-02-15T03:40:51.733Z,15.48
2023-02-15T03:43:26.136Z,17.73
2023-02-15T03:45:59.807Z,17.35
2023-02-15T03:48:32.054Z,17.95
2023-02-15T03:51:24.606Z,25.08
2023-02-15T03:53:54.524Z,17.00
2023-02-15T03:56:22.362Z,16.42
2023-02-15T03:59:08.088Z,16.55
2023-02-15T04:04:39.454Z,15.75
2023-02-15T04:07:09.629Z,15.77
2023-02-15T04:09:55.468Z,15.75
2023-02-15T04:12:23.723Z,15.10
2023-02-15T04:15:09.424Z,17.67
2023-02-15T04:17:38.374Z,11.93
2023-02-15T04:20:27.609Z,15.57
2023-02-15T04:23:13.195Z,18.67
2023-02-15T04:25:41.160Z,18.00
2023-02-15T04:28:09.464Z,14.85
2023-02-15T04:30:37.552Z,16.38
2023-02-15T04:33:05.420Z,16.77
2023-02-15T04:35:34.613Z,16.20
2023-02-15T04:38:02.783Z,17.25
2023-02-15T04:40:30.736Z,19.38
2023-02-15T04:42:58.650Z,20.15
2023-02-15T04:45:28.152Z,20.42
2023-02-15T04:47:56.502Z,16.77
2023-02-15T04:50:24.721Z,15.90
2023-02-15T04:52:54.005Z,23.48
2023-02-15T04:55:21.945Z,17.85
2023-02-15T04:57:49.752Z,18.73
2023-02-15T05:00:18.219Z,21.83
2023-02-15T05:02:46.104Z,19.92
2023-02-15T05:05:16.147Z,21.38
2023-02-15T05:07:44.100Z,20.02
2023-02-15T05:10:13.390Z,22.13
2023-02-15T05:12:41.305Z,21.80
2023-02-15T05:15:09.940Z,21.85
2023-02-15T05:17:37.746Z,24.05
2023-02-15T05:20:06.706Z,22.00
2023-02-15T05:22:34.479Z,21.02
2023-02-15T05:25:20.050Z,25.40
2023-02-15T05:28:06.637Z,26.75
2023-02-15T05:30:34.698Z,23.77
2023-02-15T05:33:02.610Z,24.48
2023-02-15T05:35:30.402Z,23.27
2023-02-15T05:37:58.170Z,24.33
2023-02-15T05:40:25.976Z,21.60
2023-02-15T05:42:55.109Z,25.48
2023-02-15T05:45:23.069Z,25.00
2023-02-15T05:47:51.316Z,25.63
2023-02-15T05:50:19.463Z,23.20
2023-02-15T05:52:47.273Z,21.00
2023-02-15T05:55:15.089Z,20.65
2023-02-15T05:57:42.984Z,26.33
2023-02-15T06:00:15.029Z,22.35
2023-02-15T06:02:42.930Z,22.48
2023-02-15T06:05:11.176Z,26.13
2023-02-15T06:07:38.984Z,21.58
2023-02-15T06:10:08.304Z,21.92
2023-02-15T06:12:36.101Z,18.88
2023-02-15T06:15:04.123Z,22.58
2023-02-15T06:17:33.833Z,26.35
2023-02-15T06:20:01.639Z,23.85
2023-02-15T06:22:29.497Z,28.98
2023-02-15T06:24:57.279Z,22.00
2023-02-15T06:27:25.088Z,27.00
2023-02-15T06:29:52.867Z,25.15
2023-02-15T06:32:20.662Z,23.88
2023-02-15T06:34:49.994Z,27.42
2023-02-15T06:37:17.846Z,25.38
2023-02-15T06:39:45.808Z,23.58
2023-02-15T06:42:13.705Z,23.90
2023-02-15T06:44:41.701Z,27.88
2023-02-15T06:47:09.636Z,22.90
2023-02-15T06:49:37.634Z,24.92
2023-02-15T06:52:07.347Z,21.95
2023-02-15T06:54:35.410Z,24.42
2023-02-15T06:57:03.314Z,25.48
2023-02-15T06:59:31.194Z,21.45
2023-02-15T07:01:59.584Z,27.83
2023-02-15T07:04:29.708Z,22.88
2023-02-15T07:06:57.807Z,27.25
2023-02-15T07:09:27.399Z,28.48
2023-02-15T07:12:13.059Z,23.13
2023-02-15T07:14:41.642Z,24.58
2023-02-15T07:17:27.430Z,26.60
2023-02-15T07:19:57.690Z,23.20
2023-02-15T07:22:25.714Z,22.40
2023-02-15T07:24:55.812Z,29.33
2023-02-15T07:27:23.758Z,27.27
2023-02-15T07:29:51.624Z,24.17
2023-02-15T07:32:19.669Z,25.42
2023-02-15T07:34:47.728Z,19.95
2023-02-15T07:37:15.665Z,24.80
2023-02-15T07:39:43.512Z,22.27
2023-02-15T07:42:12.872Z,22.90
2023-02-15T07:44:40.949Z,22.02
2023-02-15T07:47:08.875Z,19.42
2023-02-15T07:49:36.796Z,19.42
2023-02-15T07:52:04.704Z,24.40
2023-02-15T07:54:32.672Z,18.55
2023-02-15T07:57:00.520Z,21.63
2023-02-15T07:59:29.848Z,23.40
2023-02-15T08:01:58.261Z,21.90
2023-02-15T08:04:26.789Z,19.80
2023-02-15T08:06:55.961Z,18.52
2023-02-15T08:09:24.302Z,17.85
2023-02-15T08:11:52.438Z,24.02
2023-02-15T08:14:23.039Z,22.60
2023-02-15T08:16:53.450Z,20.77
2023-02-15T08:19:23.624Z,20.80
2023-02-15T08:21:54.418Z,20.10
2023-02-15T08:24:24.327Z,21.80
2023-02-15T08:26:53.137Z,22.85
2023-02-15T08:29:23.528Z,22.67
2023-02-15T08:31:55.933Z,19.38
2023-02-15T08:34:23.920Z,22.27
2023-02-15T08:36:51.953Z,22.50
2023-02-15T08:39:19.964Z,22.23
2023-02-15T08:41:49.507Z,20.17
2023-02-15T08:44:19.294Z,20.83
2023-02-15T08:46:48.917Z,23.83
2023-02-15T08:49:20.625Z,18.70
2023-02-15T08:51:49.999Z,16.77
2023-02-15T08:54:19.899Z,17.20
2023-02-15T08:56:48.175Z,18.63
2023-02-15T08:59:19.069Z,19.42
2023-02-15T09:01:49.902Z,16.50
2023-02-15T09:04:19.759Z,20.02
2023-02-15T09:06:49.649Z,16.15
2023-02-15T09:09:18.828Z,16.73
2023-02-15T09:11:48.937Z,16.52
2023-02-15T09:14:18.916Z,15.52
2023-02-15T09:16:49.912Z,14.48
2023-02-15T09:19:20.950Z,16.52
2023-02-15T09:21:48.908Z,15.25
2023-02-15T09:24:18.605Z,17.00
2023-02-15T09:26:48.273Z,17.25
2023-02-15T09:29:17.063Z,19.30
2023-02-15T09:31:46.817Z,17.13
2023-02-15T09:34:17.191Z,19.05
2023-02-15T09:36:47.560Z,14.52
2023-02-15T09:39:17.976Z,17.30
2023-02-15T09:42:18.478Z,13.20
2023-02-15T09:45:18.203Z,17.05
2023-02-15T09:48:17.508Z,15.35
2023-02-15T09:50:55.587Z,14.65
2023-02-15T09:53:38.241Z,15.38
2023-02-15T09:56:11.765Z,15.70
2023-02-15T09:58:50.370Z,15.63
2023-02-15T10:01:29.321Z,13.50
2023-02-15T10:04:13.305Z,15.93
2023-02-15T10:06:47.281Z,16.83
2023-02-15T10:09:48.386Z,16.77
2023-02-15T10:12:40.636Z,17.23
2023-02-15T10:15:31.548Z,16.25
2023-02-15T10:18:17.160Z,18.25
2023-02-15T10:20:58.678Z,17.35
2023-02-15T10:23:40.637Z,18.05
2023-02-15T10:26:18.197Z,17.02
2023-02-15T10:28:50.723Z,17.67
2023-02-15T10:31:27.156Z,14.73
2023-02-15T10:34:13.313Z,16.42
2023-02-15T10:37:00.641Z,17.48
2023-02-15T10:39:35.482Z,14.50
2023-02-15T10:42:12.129Z,16.52
2023-02-15T10:44:57.324Z,17.10
2023-02-15T10:47:48.049Z,15.43
2023-02-15T10:50:29.168Z,18.48
2023-02-15T10:53:10.360Z,18.45
2023-02-15T10:55:51.082Z,18.45
2023-02-15T10:58:34.608Z,17.38
2023-02-15T11:01:14.877Z,18.45
2023-02-15T11:04:08.167Z,19.58
2023-02-15T11:06:38.751Z,19.73
2023-02-15T11:09:12.796Z,20.05
2023-02-15T11:11:43.465Z,14.93
2023-02-15T11:14:17.781Z,22.23
2023-02-15T11:16:51.151Z,18.05
2023-02-15T11:19:24.475Z,17.23
2023-02-15T11:21:57.036Z,20.30
2023-02-15T11:24:30.080Z,17.98
2023-02-15T11:27:02.334Z,20.65
2023-02-15T11:29:36.626Z,21.77
2023-02-15T11:32:16.128Z,20.90
2023-02-15T11:34:53.829Z,18.50
2023-02-15T11:37:30.685Z,19.95
2023-02-15T11:39:58.534Z,21.40
2023-02-15T11:42:29.926Z,23.98
2023-02-15T11:45:06.510Z,18.05
2023-02-15T11:47:34.410Z,21.40
2023-02-15T11:50:02.425Z,18.92
2023-02-15T11:52:30.228Z,17.70
2023-02-15T11:54:58.180Z,22.75
2023-02-15T11:57:30.610Z,18.00
2023-02-15T12:00:05.117Z,21.67
2023-02-15T12:02:35.415Z,21.52
2023-02-15T12:05:08.970Z,38.65
2023-02-15T12:07:39.676Z,25.13
2023-02-15T12:10:21.583Z,20.58
2023-02-15T12:12:49.578Z,21.98
2023-02-15T12:15:33.314Z,21.08
2023-02-15T12:18:01.532Z,20.00
2023-02-15T12:20:32.921Z,21.85
2023-02-15T12:23:04.188Z,22.75
2023-02-15T12:25:38.443Z,20.23
2023-02-15T12:28:19.055Z,20.88
2023-02-15T12:30:48.504Z,24.60
2023-02-15T12:33:19.211Z,21.88
2023-02-15T12:35:50.347Z,23.77
2023-02-15T12:38:26.556Z,19.95
2023-02-15T12:41:01.602Z,21.15
2023-02-15T12:43:34.344Z,18.75
2023-02-15T12:46:25.295Z,30.27
2023-02-15T12:49:09.921Z,24.08
2023-02-15T12:51:48.697Z,21.35
2023-02-15T12:54:35.463Z,24.80
2023-02-15T12:57:26.876Z,26.27
2023-02-15T12:59:57.517Z,23.10
2023-02-15T13:02:30.438Z,25.45
2023-02-15T13:04:59.670Z,22.05
2023-02-15T13:07:33.295Z,24.63
2023-02-15T13:10:01.511Z,24.55
2023-02-15T13:12:33.058Z,24.10
2023-02-15T13:15:03.414Z,28.58
2023-02-15T13:17:35.851Z,27.42
2023-02-15T13:20:10.767Z,25.65
2023-02-15T13:22:44.019Z,23.67
2023-02-15T13:25:17.465Z,23.15
2023-02-15T13:27:47.083Z,29.17
2023-02-15T13:30:27.545Z,23.85
2023-02-15T13:33:01.564Z,26.50
2023-02-15T13:35:38.337Z,28.48
2023-02-15T13:38:22.193Z,23.27
2023-02-15T13:40:55.834Z,27.55
2023-02-15T13:43:43.286Z,24.50
2023-02-15T13:46:21.772Z,25.30
2023-02-15T13:49:05.095Z,22.77
2023-02-15T13:51:42.794Z,25.33
2023-02-15T13:54:49.520Z,26.83
2023-02-15T13:57:43.619Z,25.58
2023-02-15T14:00:19.230Z,22.52
2023-02-15T14:03:19.666Z,23.00
2023-02-15T14:06:09.105Z,24.90
2023-02-15T14:08:48.870Z,24.13
2023-02-15T14:11:23.578Z,24.08
2023-02-15T14:14:17.817Z,30.10
2023-02-15T14:17:06.809Z,22.92
2023-02-15T14:19:39.540Z,24.23
2023-02-15T14:22:17.946Z,23.02
2023-02-15T14:24:52.206Z,26.88
2023-02-15T14:27:29.311Z,23.58
2023-02-15T14:29:59.937Z,23.17
2023-02-15T14:32:33.743Z,23.48
2023-02-15T14:35:02.880Z,20.88
2023-02-15T14:37:43.731Z,20.10
2023-02-15T14:40:37.002Z,26.65
2023-02-15T14:43:13.817Z,22.02
2023-02-15T14:45:57.816Z,21.73
2023-02-15T14:48:33.206Z,23.38
2023-02-15T14:51:02.488Z,20.45
2023-02-15T14:53:40.823Z,19.25
2023-02-15T14:56:27.164Z,20.65
2023-02-15T14:59:01.639Z,20.73
2023-02-15T15:01:31.855Z,18.92
2023-02-15T15:04:04.879Z,20.02
2023-02-15T15:06:34.938Z,20.65
2023-02-15T15:09:14.638Z,18.95
2023-02-15T15:11:45.862Z,17.45
2023-02-15T15:14:43.725Z,21.20
2023-02-15T15:17:38.772Z,22.92
2023-02-15T15:20:15.414Z,19.75
2023-02-15T15:22:44.800Z,20.23
2023-02-15T15:25:46.918Z,22.60
2023-02-15T15:28:47.343Z,18.73
2023-02-15T15:31:22.304Z,21.52
2023-02-15T15:34:19.685Z,17.75
2023-02-15T15:37:38.898Z,18.13
2023-02-15T15:40:35.539Z,20.50
2023-02-15T15:43:34.801Z,23.25
2023-02-15T15:46:15.547Z,21.67
2023-02-15T15:48:43.758Z,20.17
2023-02-15T15:51:19.901Z,19.75
2023-02-15T15:53:52.234Z,19.75
2023-02-15T15:56:23.329Z,22.10
2023-02-15T15:58:56.558Z,18.65
2023-02-15T16:01:30.562Z,23.52
2023-02-15T16:04:00.163Z,16.48
2023-02-15T16:06:34.115Z,17.73
2023-02-15T16:09:17.626Z,18.48
2023-02-15T16:11:46.109Z,16.42
2023-02-15T16:14:19.373Z,18.25
2023-02-15T16:16:54.217Z,18.83
2023-02-15T16:19:25.661Z,18.88
2023-02-15T16:21:54.019Z,19.13
2023-02-15T16:24:29.249Z,18.38
2023-02-15T16:27:21.742Z,18.30
2023-02-15T16:29:51.048Z,17.02
2023-02-15T16:32:21.627Z,21.33
2023-02-15T16:34:57.458Z,24.63
2023-02-15T16:37:28.392Z,20.45
2023-02-15T16:39:57.370Z,20.65
2023-02-15T16:42:26.066Z,29.35
2023-02-15T16:45:01.330Z,18.52
2023-02-15T16:47:32.415Z,24.77
2023-02-15T16:50:03.358Z,25.95
2023-02-15T16:52:31.984Z,19.17
2023-02-15T16:55:02.035Z,17.75
2023-02-15T16:57:33.330Z,22.02
2023-02-15T17:00:08.266Z,18.70
2023-02-15T17:02:55.113Z,18.48
2023-02-15T17:05:25.082Z,25.17
2023-02-15T17:08:14.155Z,23.80
2023-02-15T17:10:44.138Z,19.33
2023-02-15T17:13:13.605Z,19.63
2023-02-15T17:15:44.811Z,18.88
2023-02-15T17:18:18.867Z,24.73
2023-02-15T17:20:48.300Z,20.17
2023-02-15T17:23:27.740Z,23.05
2023-02-15T17:25:56.322Z,18.63
2023-02-15T17:28:26.828Z,19.17
2023-02-15T17:30:57.752Z,21.10
2023-02-15T17:33:30.084Z,23.70
2023-02-15T17:36:06.665Z,20.40
2023-02-15T17:38:34.999Z,18.95
2023-02-15T17:41:03.211Z,23.05
2023-02-15T17:43:31.208Z,24.10
2023-02-15T17:46:00.804Z,24.65
2023-02-15T17:48:33.592Z,18.58
2023-02-15T17:51:03.497Z,21.92
2023-02-15T17:53:32.112Z,19.75
2023-02-15T17:55:59.044Z,25.60
2023-02-15T17:58:27.125Z,18.02
2023-02-15T18:01:15.948Z,20.67
2023-02-15T18:04:06.258Z,21.40
2023-02-15T18:06:52.457Z,17.23
2023-02-15T18:09:39.944Z,21.63
2023-02-15T18:12:20.541Z,24.27
2023-02-15T18:14:48.461Z,27.15
2023-02-15T18:17:17.585Z,22.98
2023-02-15T18:19:48.516Z,19.10
2023-02-15T18:22:19.070Z,19.70
2023-02-15T18:24:47.861Z,21.40
2023-02-15T18:27:17.196Z,26.23
2023-02-15T18:29:45.113Z,28.58
2023-02-15T18:32:18.349Z,23.23
2023-02-15T18:34:49.541Z,24.88
2023-02-15T18:37:20.608Z,21.85
2023-02-15T18:39:50.298Z,22.67
2023-02-15T18:42:22.680Z,23.48
2023-02-15T18:44:51.320Z,24.20
2023-02-15T18:47:19.228Z,23.13
2023-02-15T18:49:48.521Z,22.52
2023-02-15T18:52:18.122Z,24.27
2023-02-15T18:54:46.961Z,28.63
2023-02-15T18:57:16.850Z,22.25
2023-02-15T18:59:44.818Z,21.20
2023-02-15T19:02:18.007Z,19.67
2023-02-15T19:04:46.951Z,24.98
2023-02-15T19:07:20.550Z,31.23
2023-02-15T19:09:52.038Z,23.60
2023-02-15T19:12:20.564Z,23.27
2023-02-15T19:14:49.000Z,22.42
2023-02-15T19:17:19.223Z,25.92
2023-02-15T19:19:47.792Z,20.38
2023-02-15T19:22:19.244Z,22.80
2023-02-15T19:24:49.007Z,27.45
2023-02-15T19:27:23.762Z,30.67
2023-02-15T19:29:52.255Z,26.05
2023-02-15T19:32:20.030Z,30.67
2023-02-15T19:34:47.840Z,28.92
2023-02-15T19:37:24.655Z,27.17
2023-02-15T19:39:53.079Z,28.52
2023-02-15T19:42:24.096Z,30.55
2023-02-15T19:44:52.123Z,21.27
2023-02-15T19:47:20.106Z,27.88
2023-02-15T19:49:48.330Z,24.92
2023-02-15T19:52:19.824Z,27.83
2023-02-15T19:54:49.345Z,29.40
2023-02-15T19:57:17.418Z,31.98
2023-02-15T19:59:45.298Z,31.88
2023-02-15T20:02:15.463Z,30.02
2023-02-15T20:04:43.553Z,26.65
2023-02-15T20:07:23.316Z,32.25
2023-02-15T20:09:51.234Z,31.58
2023-02-15T20:12:25.058Z,30.55
2023-02-15T20:14:53.636Z,28.05
2023-02-15T20:17:21.508Z,28.02
2023-02-15T20:19:49.479Z,29.63
2023-02-15T20:22:24.441Z,25.00
2023-02-15T20:24:55.630Z,27.75
2023-02-15T20:27:24.114Z,32.30
2023-02-15T20:29:52.241Z,30.55
2023-02-15T20:32:20.322Z,26.60
2023-02-15T20:34:48.331Z,30.40
2023-02-15T20:37:26.412Z,28.15
2023-02-15T20:39:54.479Z,34.10
2023-02-15T20:42:22.540Z,26.35
2023-02-15T20:44:50.445Z,31.52
2023-02-15T20:47:18.482Z,30.27
2023-02-15T20:49:46.334Z,34.55
2023-02-15T20:52:20.398Z,34.63
2023-02-15T20:54:49.828Z,30.23
2023-02-15T20:57:17.820Z,28.70
2023-02-15T20:59:46.040Z,28.80
2023-02-15T21:02:18.925Z,29.30
2023-02-15T21:04:47.174Z,31.90
2023-02-15T21:07:16.956Z,33.78
2023-02-15T21:09:45.222Z,37.30
2023-02-15T21:12:16.154Z,31.75
2023-02-15T21:14:45.150Z,29.38
2023-02-15T21:17:13.537Z,29.30
2023-02-15T21:19:41.737Z,30.52
2023-02-15T21:22:13.433Z,27.58
2023-02-15T21:24:47.865Z,36.13
2023-02-15T21:27:18.857Z,29.23
2023-02-15T21:29:46.688Z,30.33
2023-02-15T21:32:14.716Z,26.48
2023-02-15T21:34:42.764Z,25.92
2023-02-15T21:37:27.486Z,27.70
2023-02-15T21:39:55.378Z,29.33
2023-02-15T21:42:42.310Z,28.75
2023-02-15T21:45:33.383Z,24.38
2023-02-15T21:48:01.546Z,27.38
2023-02-15T21:50:47.507Z,30.77
2023-02-15T21:53:23.084Z,24.58
2023-02-15T21:55:52.472Z,30.58
2023-02-15T21:58:24.488Z,25.20
2023-02-15T22:00:54.875Z,24.30
2023-02-15T22:03:23.948Z,25.83
2023-02-15T22:05:52.135Z,28.05
2023-02-15T22:08:20.464Z,27.75
2023-02-15T22:10:49.094Z,33.42
2023-02-15T22:13:20.554Z,34.28
2023-02-15T22:15:49.902Z,31.88
2023-02-15T22:18:24.111Z,30.75
2023-02-15T22:20:52.911Z,29.20
2023-02-15T22:23:21.810Z,28.10
2023-02-15T22:25:55.754Z,25.75
2023-02-15T22:28:29.120Z,28.95
2023-02-15T22:30:58.518Z,26.30
2023-02-15T22:33:29.776Z,34.00
2023-02-15T22:35:58.674Z,27.75
2023-02-15T22:38:27.166Z,31.00
2023-02-15T22:40:57.839Z,30.85
2023-02-15T22:43:36.855Z,25.80
2023-02-15T22:46:08.474Z,34.97
2023-02-15T22:48:36.786Z,30.88
2023-02-15T22:51:05.229Z,31.38
2023-02-15T22:53:33.443Z,33.72
2023-02-15T22:56:07.469Z,35.55
2023-02-15T22:58:35.930Z,37.80
2023-02-15T23:01:04.043Z,30.55
2023-02-15T23:03:34.313Z,35.50
2023-02-15T23:06:02.226Z,33.95
2023-02-15T23:08:30.265Z,32.55
2023-02-15T23:10:58.758Z,28.63
2023-02-15T23:13:32.253Z,32.28
2023-02-15T23:16:02.388Z,33.58
2023-02-15T23:18:35.330Z,27.55
2023-02-15T23:21:07.581Z,33.63
2023-02-15T23:23:38.090Z,31.90
2023-02-15T23:26:16.354Z,32.15
2023-02-15T23:28:44.446Z,33.80
2023-02-15T23:31:19.154Z,33.33
2023-02-15T23:33:49.699Z,35.08
2023-02-15T23:36:27.554Z,35.22
2023-02-15T23:38:55.844Z,39.42
2023-02-15T23:41:26.695Z,37.83
2023-02-15T23:43:57.773Z,36.42
2023-02-15T23:46:34.094Z,35.72
2023-02-15T23:49:15.157Z,32.17
2023-02-15T23:51:44.815Z,34.20
2023-02-15T23:54:15.480Z,38.78
2023-02-15T23:56:45.406Z,34.03
2023-02-15T23:59:17.752Z,38.47
